Time;durP1;ratioP1;P1;durP2;ratioP2;P2;SDS_P1;SDS_P2;PMS_P1;PMS_P2;Temp;Humidity;BMP_temperature;BMP_pressure;BME280_temperature;BME280_humidity;BME280_pressure;Samples;Min_cycle;Max_cycle;Signal;HPM_P1;HPM_P2
2023/09/21 00:00:12;;;;;;;3.88;1.98;;;17.30;99.90;;;;;;5023670;28;20219;-64
2023/09/21 00:02:44;;;;;;;4.43;2.13;;;17.50;99.90;;;;;;5037851;28;20625;-64
2023/09/21 00:05:11;;;;;;;2.72;1.60;;;;;;;;;;5009811;28;20317;-64
2023/09/21 00:07:38;;;;;;;4.13;2.10;;;17.40;99.90;;;;;;5024423;28;20200;-64
2023/09/21 00:10:06;;;;;;;2.53;1.40;;;17.40;99.90;;;;;;5037390;28;20204;-64
2023/09/21 00:12:34;;;;;;;2.55;1.60;;;17.50;99.90;;;;;;5038611;28;20235;-64
2023/09/21 00:15:04;;;;;;;3.30;1.60;;;17.50;99.90;;;;;;5024989;28;20290;-64
2023/09/21 00:17:32;;;;;;;6.13;2.35;;;18.00;99.90;;;;;;5041299;28;20232;-64
2023/09/21 00:20:01;;;;;;;2.40;1.70;;;17.20;99.90;;;;;;5008901;28;20219;-64
2023/09/21 00:22:29;;;;;;;2.67;1.90;;;17.40;99.90;;;;;;5020114;28;20923;-64
2023/09/21 00:24:56;;;;;;;4.22;1.90;;;17.50;99.90;;;;;;5031605;28;20665;-64
2023/09/21 00:27:26;;;;;;;2.72;1.70;;;17.30;99.90;;;;;;5033223;28;21500;-64
2023/09/21 00:29:53;;;;;;;1.92;1.60;;;17.40;99.90;;;;;;5036114;28;20197;-64
2023/09/21 00:32:20;;;;;;;3.53;1.77;;;17.30;99.90;;;;;;5017227;28;20201;-64
2023/09/21 00:34:49;;;;;;;3.45;1.52;;;17.30;99.90;;;;;;5000188;28;20280;-64
2023/09/21 00:37:18;;;;;;;1.92;1.52;;;17.30;99.90;;;;;;5016563;28;20207;-64
2023/09/21 00:39:45;;;;;;;3.45;1.80;;;17.30;99.90;;;;;;5024890;28;20200;-64
2023/09/21 00:42:12;;;;;;;1.92;1.70;;;17.50;99.90;;;;;;5024275;28;20204;-64
2023/09/21 00:44:40;;;;;;;2.33;1.50;;;17.40;99.90;;;;;;5031260;28;20363;-64
2023/09/21 00:47:07;;;;;;;3.60;1.58;;;17.40;99.90;;;;;;5016700;28;20300;-64
2023/09/21 00:49:36;;;;;;;4.18;1.80;;;17.40;99.90;;;;;;5027524;28;20207;-64
2023/09/21 00:52:03;;;;;;;3.20;1.95;;;17.40;99.90;;;;;;4998960;28;20587;-64
2023/09/21 00:54:31;;;;;;;3.88;2.25;;;17.40;99.90;;;;;;5019962;28;20214;-65
2023/09/21 00:56:58;;;;;;;2.35;1.58;;;17.40;99.90;;;;;;5025436;28;20210;-64
2023/09/21 00:59:25;;;;;;;4.82;1.80;;;17.40;99.90;;;;;;5030861;28;20207;-64
2023/09/21 01:01:52;;;;;;;3.05;1.58;;;17.40;99.90;;;;;;5020798;28;21082;-64
2023/09/21 01:04:21;;;;;;;2.47;1.80;;;17.40;99.90;;;;;;5037097;28;21105;-64
2023/09/21 01:06:48;;;;;;;3.83;1.63;;;17.50;99.90;;;;;;5010308;28;20213;-64
2023/09/21 01:09:17;;;;;;;1.98;1.75;;;17.70;99.90;;;;;;5021986;28;20207;-64
2023/09/21 01:11:46;;;;;;;4.90;1.90;;;17.40;99.90;;;;;;5028425;28;20308;-64
2023/09/21 01:14:12;;;;;;;1.92;1.55;;;17.30;99.90;;;;;;5036015;28;20196;-64
2023/09/21 01:16:40;;;;;;;4.20;1.88;;;17.30;99.90;;;;;;5017152;28;20328;-64
2023/09/21 01:19:07;;;;;;;2.15;1.95;;;17.30;99.90;;;;;;5039088;28;20203;-64
2023/09/21 01:21:36;;;;;;;1.52;1.40;;;17.40;99.90;;;;;;5006478;28;20284;-64
2023/09/21 01:24:06;;;;;;;3.58;1.60;;;17.40;99.90;;;;;;5029652;28;20205;-64
2023/09/21 01:26:33;;;;;;;1.80;1.55;;;17.30;99.90;;;;;;5032809;28;20319;-64
2023/09/21 01:29:01;;;;;;;3.38;1.85;;;17.30;99.90;;;;;;5035762;28;20220;-64
2023/09/21 01:31:28;;;;;;;2.58;1.67;;;17.70;99.90;;;;;;5035286;28;20204;-64
2023/09/21 01:33:58;;;;;;;4.53;1.90;;;17.30;99.90;;;;;;5026674;28;20215;-64
2023/09/21 01:36:26;;;;;;;1.95;1.50;;;17.40;99.90;;;;;;5025732;28;20235;-64
2023/09/21 01:38:53;;;;;;;3.13;1.60;;;17.50;99.90;;;;;;5016472;28;20209;-64
2023/09/21 01:41:21;;;;;;;2.45;1.60;;;17.30;99.90;;;;;;5025689;28;20193;-64
2023/09/21 01:43:48;;;;;;;2.72;1.50;;;17.30;99.90;;;;;;5035417;28;20201;-64
2023/09/21 01:46:19;;;;;;;3.55;1.52;;;17.30;99.90;;;;;;5043384;28;20197;-64
2023/09/21 01:48:45;;;;;;;3.15;1.80;;;17.40;99.90;;;;;;5029531;28;20208;-64
2023/09/21 01:51:12;;;;;;;3.92;1.85;;;17.20;99.90;;;;;;5043095;28;20740;-64
2023/09/21 01:53:39;;;;;;;3.22;1.95;;;17.30;99.90;;;;;;4989684;28;20602;-64
2023/09/21 01:56:08;;;;;;;3.38;1.75;;;17.20;99.90;;;;;;5032196;28;20224;-64
2023/09/21 01:58:36;;;;;;;2.53;1.70;;;17.20;99.90;;;;;;5037473;28;20212;-64
2023/09/21 02:01:04;;;;;;;3.42;1.65;;;17.20;99.90;;;;;;5028371;28;20206;-64
2023/09/21 02:03:31;;;;;;;2.65;2.00;;;17.20;99.90;;;;;;5026313;28;20220;-64
2023/09/21 02:06:01;;;;;;;2.08;1.63;;;17.30;99.90;;;;;;5049198;28;20235;-64
2023/09/21 02:08:28;;;;;;;4.22;1.50;;;17.20;99.90;;;;;;5004545;28;20223;-64
2023/09/21 02:10:55;;;;;;;3.15;1.60;;;17.20;99.90;;;;;;5029499;28;20562;-64
2023/09/21 02:13:22;;;;;;;2.75;1.42;;;17.20;99.90;;;;;;5024916;28;20205;-64
2023/09/21 02:15:51;;;;;;;1.90;1.65;;;17.20;99.90;;;;;;5030139;28;20227;-64
2023/09/21 02:18:19;;;;;;;5.63;1.80;;;17.20;99.90;;;;;;5032341;28;20196;-64
2023/09/21 02:20:45;;;;;;;5.15;1.60;;;17.20;99.90;;;;;;5029618;28;20251;-65
2023/09/21 02:23:13;;;;;;;1.95;1.60;;;17.20;99.90;;;;;;5018850;28;20204;-64
2023/09/21 02:25:41;;;;;;;3.45;1.83;;;17.20;99.90;;;;;;5027487;28;20773;-65
2023/09/21 02:28:11;;;;;;;4.32;1.75;;;;;;;;;;5012972;28;20233;-64
2023/09/21 02:30:40;;;;;;;2.85;1.60;;;16.70;99.90;;;;;;5027763;28;20739;-64
2023/09/21 02:33:09;;;;;;;5.43;1.77;;;17.10;99.90;;;;;;5036994;28;20209;-64
2023/09/21 02:35:41;;;;;;;1.70;1.60;;;17.10;99.90;;;;;;5022179;28;21159;-64
2023/09/21 02:38:09;;;;;;;2.42;1.77;;;17.20;99.90;;;;;;5035420;28;20206;-64
2023/09/21 02:40:36;;;;;;;2.30;1.70;;;17.10;99.90;;;;;;4998748;28;20208;-64
2023/09/21 02:43:03;;;;;;;2.17;1.65;;;17.10;99.90;;;;;;5026119;28;20205;-64
2023/09/21 02:45:31;;;;;;;3.47;1.60;;;17.20;99.90;;;;;;5023941;28;20205;-65
2023/09/21 02:48:00;;;;;;;2.33;1.77;;;17.20;99.90;;;;;;5030983;28;20277;-64
2023/09/21 02:50:29;;;;;;;4.22;1.50;;;17.20;99.90;;;;;;5026181;28;20208;-64
2023/09/21 02:52:57;;;;;;;1.90;1.52;;;17.20;99.90;;;;;;5038302;28;20221;-64
2023/09/21 02:55:26;;;;;;;2.00;1.33;;;17.10;99.90;;;;;;4987186;28;20228;-65
2023/09/21 02:57:56;;;;;;;2.85;1.40;;;16.70;99.90;;;;;;5022643;28;20209;-64
2023/09/21 03:00:28;;;;;;;3.47;1.58;;;17.20;99.90;;;;;;5034076;28;20197;-64
2023/09/21 03:02:56;;;;;;;2.22;1.88;;;17.10;99.90;;;;;;5030762;28;20232;-64
2023/09/21 03:05:24;;;;;;;4.05;1.70;;;17.10;99.90;;;;;;5025634;28;20292;-64
2023/09/21 03:07:54;;;;;;;2.35;1.70;;;17.10;99.90;;;;;;5035570;28;20221;-64
2023/09/21 03:10:21;;;;;;;4.97;1.77;;;17.10;99.90;;;;;;5004121;28;20855;-64
2023/09/21 03:12:49;;;;;;;2.72;1.80;;;17.10;99.90;;;;;;5036590;28;21407;-64
2023/09/21 03:15:18;;;;;;;2.45;1.38;;;17.10;99.90;;;;;;5031120;28;20205;-64
2023/09/21 03:17:45;;;;;;;3.35;1.67;;;17.20;99.90;;;;;;5026679;28;20211;-64
2023/09/21 03:20:25;;;;;;;1.60;1.50;;;16.40;99.90;;;;;;5028591;28;20205;-64
2023/09/21 03:22:55;;;;;;;4.53;1.75;;;17.10;99.90;;;;;;5036191;28;20197;-64
2023/09/21 03:25:32;;;;;;;1.70;1.52;;;17.00;99.90;;;;;;5004903;28;20857;-64
2023/09/21 03:28:00;;;;;;;2.65;1.60;;;17.10;99.90;;;;;;5034351;28;21036;-64
2023/09/21 03:30:28;;;;;;;2.22;1.58;;;17.10;99.90;;;;;;5015433;28;20219;-64
2023/09/21 03:32:55;;;;;;;2.10;1.50;;;17.00;99.90;;;;;;5029078;28;20204;-64
2023/09/21 03:35:26;;;;;;;2.67;1.50;;;17.10;99.90;;;;;;5015440;28;20863;-65
2023/09/21 03:37:57;;;;;;;1.60;1.42;;;17.00;99.90;;;;;;5029614;28;20197;-64
2023/09/21 03:40:25;;;;;;;4.60;2.05;;;16.90;99.90;;;;;;4993216;28;20929;-64
2023/09/21 03:42:52;;;;;;;2.20;1.40;;;17.00;99.90;;;;;;5041596;28;20712;-64
2023/09/21 03:45:20;;;;;;;2.15;1.70;;;16.90;99.90;;;;;;5008216;28;20251;-64
2023/09/21 03:47:47;;;;;;;5.05;1.63;;;17.00;99.90;;;;;;5033796;28;20318;-64
2023/09/21 03:50:17;;;;;;;4.32;1.80;;;17.00;99.90;;;;;;5002155;28;20225;-65
2023/09/21 03:52:44;;;;;;;2.90;1.88;;;17.00;99.90;;;;;;5021066;28;20212;-64
2023/09/21 03:55:15;;;;;;;4.63;1.80;;;17.00;99.90;;;;;;5035277;28;20205;-64
2023/09/21 03:57:43;;;;;;;2.08;1.67;;;17.00;99.90;;;;;;5005061;28;20288;-63
2023/09/21 04:00:26;;;;;;;3.03;1.67;;;17.10;99.90;;;;;;5017094;28;20229;-64
2023/09/21 04:02:53;;;;;;;4.00;1.88;;;17.00;99.90;;;;;;5035232;28;20219;-64
2023/09/21 04:05:20;;;;;;;3.15;1.77;;;17.10;99.90;;;;;;5023819;28;20232;-64
2023/09/21 04:07:48;;;;;;;4.60;1.60;;;17.00;99.90;;;;;;5020754;28;20216;-64
2023/09/21 04:10:16;;;;;;;4.10;2.00;;;16.90;99.90;;;;;;5003885;28;20216;-64
2023/09/21 04:12:44;;;;;;;2.85;1.70;;;17.10;99.90;;;;;;5001101;28;20239;-64
2023/09/21 04:15:12;;;;;;;1.75;1.38;;;17.10;99.90;;;;;;5010975;28;20301;-64
2023/09/21 04:17:39;;;;;;;1.63;1.48;;;17.10;99.90;;;;;;5027834;28;20256;-64
2023/09/21 04:20:11;;;;;;;4.80;1.42;;;17.10;99.90;;;;;;5022511;28;20228;-64
2023/09/21 04:22:38;;;;;;;4.40;2.38;;;17.10;99.90;;;;;;5025864;28;20274;-64
2023/09/21 04:25:09;;;;;;;2.78;1.70;;;17.00;99.90;;;;;;5018737;28;21051;-64
2023/09/21 04:27:39;;;;;;;3.55;1.70;;;17.10;99.90;;;;;;4992548;28;20228;-64
2023/09/21 04:30:08;;;;;;;2.28;1.30;;;16.40;99.90;;;;;;5027608;28;21409;-64
2023/09/21 04:32:36;;;;;;;2.53;1.60;;;17.10;99.90;;;;;;5014679;28;20231;-64
2023/09/21 04:35:05;;;;;;;1.73;1.55;;;17.10;99.90;;;;;;5028125;28;20705;-64
2023/09/21 04:37:32;;;;;;;2.42;1.63;;;17.10;99.90;;;;;;5031575;28;20259;-65
2023/09/21 04:39:59;;;;;;;1.45;1.30;;;17.10;99.90;;;;;;5017672;28;20608;-64
2023/09/21 04:42:28;;;;;;;1.75;1.63;;;17.10;99.90;;;;;;4989411;28;20217;-64
2023/09/21 04:44:58;;;;;;;3.30;1.70;;;17.00;99.90;;;;;;5019253;28;20229;-64
2023/09/21 04:47:27;;;;;;;3.22;1.80;;;17.00;99.90;;;;;;5015865;28;20597;-64
2023/09/21 04:49:54;;;;;;;2.55;1.58;;;17.00;99.90;;;;;;5010262;28;20237;-63
2023/09/21 04:52:21;;;;;;;1.73;1.40;;;17.00;99.90;;;;;;5002456;28;20246;-63
2023/09/21 04:54:51;;;;;;;2.80;1.58;;;16.90;99.90;;;;;;4992731;28;20204;-63
2023/09/21 04:57:18;;;;;;;2.50;1.63;;;16.90;99.90;;;;;;5009654;28;20315;-63
2023/09/21 04:59:45;;;;;;;3.35;2.03;;;16.90;99.90;;;;;;4996239;28;20239;-63
2023/09/21 05:02:13;;;;;;;2.30;1.65;;;16.90;99.90;;;;;;5035049;28;20693;-63
2023/09/21 05:04:40;;;;;;;5.65;2.38;;;;;;;;;;5024942;28;20267;-63
2023/09/21 05:07:07;;;;;;;2.65;1.85;;;16.90;99.90;;;;;;5035205;28;20694;-63
2023/09/21 05:09:34;;;;;;;2.95;1.33;;;16.90;99.90;;;;;;5015427;28;20228;-63
2023/09/21 05:12:03;;;;;;;2.22;1.80;;;16.90;99.90;;;;;;5008009;28;20459;-63
2023/09/21 05:14:30;;;;;;;1.67;1.58;;;16.80;99.90;;;;;;5001343;28;20251;-63
2023/09/21 05:16:58;;;;;;;1.73;1.55;;;16.80;99.90;;;;;;5023849;28;20260;-63
2023/09/21 05:19:26;;;;;;;3.72;1.73;;;16.80;99.90;;;;;;5024677;28;20220;-63
2023/09/21 05:21:56;;;;;;;2.78;1.50;;;16.80;99.90;;;;;;5032173;28;20197;-63
2023/09/21 05:24:24;;;;;;;3.83;1.80;;;16.80;99.90;;;;;;5033689;28;20570;-63
2023/09/21 05:26:52;;;;;;;2.80;1.67;;;16.80;99.90;;;;;;5016499;28;20210;-63
2023/09/21 05:29:19;;;;;;;1.77;1.60;;;16.80;99.90;;;;;;5009020;28;20674;-63
2023/09/21 05:31:46;;;;;;;2.30;1.73;;;16.80;99.90;;;;;;5029389;28;20204;-63
2023/09/21 05:34:13;;;;;;;3.72;1.75;;;16.80;99.90;;;;;;5029969;28;20262;-63
2023/09/21 05:36:42;;;;;;;2.15;1.55;;;16.90;99.90;;;;;;5036083;28;20310;-63
2023/09/21 05:39:09;;;;;;;1.88;1.67;;;16.90;99.90;;;;;;5028864;28;20313;-64
2023/09/21 05:41:36;;;;;;;2.90;2.00;;;16.90;99.90;;;;;;5029026;28;20201;-63
2023/09/21 05:44:03;;;;;;;2.63;1.70;;;16.90;99.90;;;;;;5026387;28;20204;-63
2023/09/21 05:46:30;;;;;;;1.70;1.45;;;16.90;99.90;;;;;;5009018;28;20220;-63
2023/09/21 05:48:57;;;;;;;4.60;1.80;;;16.90;99.90;;;;;;5009279;28;21525;-63
2023/09/21 05:51:23;;;;;;;2.03;1.58;;;17.00;99.90;;;;;;5034934;28;21075;-63
2023/09/21 05:53:53;;;;;;;5.97;1.88;;;17.00;99.90;;;;;;5020736;28;20373;-64
2023/09/21 05:56:20;;;;;;;4.50;1.98;;;17.00;99.90;;;;;;5030353;28;20220;-63
2023/09/21 05:58:47;;;;;;;1.65;1.52;;;17.20;99.90;;;;;;5018844;28;20202;-63
2023/09/21 06:01:14;;;;;;;3.25;1.80;;;17.10;99.90;;;;;;5004561;28;20217;-64
2023/09/21 06:03:41;;;;;;;3.00;1.60;;;18.30;99.90;;;;;;5016949;28;20204;-64
2023/09/21 06:06:08;;;;;;;2.20;1.58;;;17.20;99.90;;;;;;5037301;28;20674;-63
2023/09/21 06:08:37;;;;;;;3.70;1.60;;;17.20;99.90;;;;;;5039105;28;20212;-64
2023/09/21 06:11:05;;;;;;;2.20;1.40;;;17.20;99.90;;;;;;5035474;28;20673;-63
2023/09/21 06:13:32;;;;;;;2.22;1.60;;;17.30;99.90;;;;;;5028769;28;20201;-63
2023/09/21 06:16:02;;;;;;;3.95;1.90;;;17.60;99.90;;;;;;4995557;28;20593;-63
2023/09/21 06:18:29;;;;;;;2.83;1.70;;;17.40;99.90;;;;;;5043973;28;20209;-64
2023/09/21 06:20:56;;;;;;;3.17;1.48;;;17.40;99.90;;;;;;5011080;28;20528;-64
2023/09/21 06:23:23;;;;;;;2.03;1.60;;;17.40;99.90;;;;;;5040308;28;20320;-63
2023/09/21 06:25:50;;;;;;;5.32;1.77;;;17.40;99.90;;;;;;5039040;28;20199;-63
2023/09/21 06:28:18;;;;;;;3.47;1.95;;;17.50;99.90;;;;;;5028187;28;20681;-64
2023/09/21 06:30:47;;;;;;;9.00;1.85;;;17.50;99.90;;;;;;5004616;28;20277;-63
2023/09/21 06:33:14;;;;;;;3.13;1.50;;;17.50;99.90;;;;;;5039924;28;20202;-63
2023/09/21 06:35:42;;;;;;;3.17;1.80;;;17.50;99.90;;;;;;5016059;28;20201;-64
2023/09/21 06:38:08;;;;;;;4.28;1.88;;;17.50;99.90;;;;;;5037893;28;20625;-64
2023/09/21 06:40:36;;;;;;;2.63;1.70;;;17.50;99.90;;;;;;5038523;28;20217;-63
2023/09/21 06:43:05;;;;;;;2.70;1.48;;;17.50;99.90;;;;;;5021432;28;20205;-64
2023/09/21 06:45:34;;;;;;;3.83;1.52;;;17.50;99.90;;;;;;5038475;28;20193;-63
2023/09/21 06:48:01;;;;;;;2.35;1.75;;;17.50;99.90;;;;;;5000987;28;20665;-63
2023/09/21 06:50:28;;;;;;;4.00;2.53;;;17.50;99.90;;;;;;5026062;28;20685;-63
2023/09/21 06:52:55;;;;;;;3.53;1.98;;;17.50;99.90;;;;;;5024602;28;20291;-64
2023/09/21 06:55:22;;;;;;;5.70;1.90;;;17.60;99.90;;;;;;5043024;28;20769;-63
2023/09/21 06:57:48;;;;;;;4.70;1.75;;;17.60;99.90;;;;;;5037564;28;20225;-64
2023/09/21 07:00:16;;;;;;;4.15;1.80;;;17.60;99.90;;;;;;5024449;28;20201;-64
2023/09/21 07:02:45;;;;;;;12.80;2.40;;;17.80;99.90;;;;;;5014089;28;21019;-63
2023/09/21 07:05:12;;;;;;;2.38;1.58;;;17.80;99.90;;;;;;5015798;28;20817;-63
2023/09/21 07:07:41;;;;;;;3.70;1.83;;;17.80;99.90;;;;;;5027386;28;20281;-63
2023/09/21 07:10:10;;;;;;;6.57;2.45;;;17.90;99.90;;;;;;5027809;28;20234;-63
2023/09/21 07:12:38;;;;;;;5.20;2.10;;;17.90;99.90;;;;;;5038980;28;20739;-63
2023/09/21 07:15:07;;;;;;;4.15;1.80;;;17.90;99.90;;;;;;5020867;28;20671;-64
2023/09/21 07:17:34;;;;;;;3.42;1.95;;;17.90;99.90;;;;;;5036142;28;20258;-63
2023/09/21 07:20:04;;;;;;;5.90;1.98;;;18.00;99.90;;;;;;5000888;28;20250;-63
2023/09/21 07:22:31;;;;;;;7.13;3.38;;;18.00;99.90;;;;;;5012064;28;20772;-63
2023/09/21 07:24:58;;;;;;;13.30;3.90;;;18.00;99.90;;;;;;5023842;28;20206;-63
2023/09/21 07:27:25;;;;;;;10.20;2.28;;;18.00;99.90;;;;;;5021927;28;20264;-63
2023/09/21 07:29:53;;;;;;;3.65;1.90;;;18.00;99.90;;;;;;5024255;28;20200;-63
2023/09/21 07:32:20;;;;;;;4.47;2.28;;;18.10;99.90;;;;;;5033969;28;20387;-64
2023/09/21 07:34:48;;;;;;;7.47;1.95;;;18.50;99.90;;;;;;5002226;28;20704;-63
2023/09/21 07:37:17;;;;;;;2.80;1.60;;;18.30;99.90;;;;;;5033155;28;20224;-63
2023/09/21 07:39:44;;;;;;;2.40;1.55;;;18.40;99.90;;;;;;5010462;28;20295;-63
2023/09/21 07:42:11;;;;;;;3.70;1.67;;;18.50;99.90;;;;;;5032338;28;20209;-63
2023/09/21 07:44:38;;;;;;;2.55;1.85;;;18.80;99.90;;;;;;5007804;28;20319;-63
2023/09/21 07:47:07;;;;;;;5.05;2.22;;;18.90;99.90;;;;;;5020672;28;20334;-63
2023/09/21 07:49:34;;;;;;;8.45;2.35;;;18.90;99.90;;;;;;5005945;28;20212;-63
2023/09/21 07:52:00;;;;;;;10.43;1.80;;;19.00;99.90;;;;;;5017439;28;20426;-63
2023/09/21 07:54:29;;;;;;;1.90;1.50;;;19.10;99.90;;;;;;5009975;28;20215;-63
2023/09/21 07:56:57;;;;;;;2.22;1.45;;;19.10;99.90;;;;;;5031591;28;20350;-63
2023/09/21 07:59:24;;;;;;;6.00;1.95;;;19.20;99.90;;;;;;5022223;28;20819;-63
2023/09/21 08:01:53;;;;;;;2.45;1.77;;;19.20;99.90;;;;;;5010717;28;20732;-63
2023/09/21 08:04:20;;;;;;;3.75;1.90;;;19.20;99.90;;;;;;5001042;28;20228;-63
2023/09/21 08:06:47;;;;;;;4.10;1.90;;;19.30;99.90;;;;;;5013201;28;20683;-63
2023/09/21 08:09:14;;;;;;;2.15;1.42;;;19.40;99.90;;;;;;5023272;28;20592;-63
2023/09/21 08:11:42;;;;;;;4.65;1.70;;;19.40;99.90;;;;;;5032285;28;20256;-63
2023/09/21 08:14:09;;;;;;;11.20;2.42;;;19.40;99.90;;;;;;5022302;28;20994;-63
2023/09/21 08:16:37;;;;;;;15.20;2.72;;;19.40;99.90;;;;;;5022486;28;20596;-63
2023/09/21 08:19:06;;;;;;;2.75;1.67;;;19.40;99.90;;;;;;5035310;28;20584;-63
2023/09/21 08:21:33;;;;;;;8.60;1.85;;;19.40;99.90;;;;;;5004029;28;20785;-63
2023/09/21 08:24:00;;;;;;;4.55;1.70;;;19.50;99.90;;;;;;5035885;28;20197;-64
2023/09/21 08:26:27;;;;;;;7.75;2.00;;;19.60;99.90;;;;;;5024212;28;20216;-63
2023/09/21 08:28:55;;;;;;;3.67;1.63;;;20.80;99.90;;;;;;5016764;28;20221;-63
2023/09/21 08:31:22;;;;;;;2.63;1.58;;;19.90;99.90;;;;;;5020280;28;20217;-63
2023/09/21 08:33:50;;;;;;;6.20;1.73;;;20.00;99.90;;;;;;5032706;28;20228;-64
2023/09/21 08:36:16;;;;;;;31.10;3.53;;;20.10;99.90;;;;;;5000862;28;20210;-64
2023/09/21 08:38:44;;;;;;;4.60;1.60;;;20.20;99.90;;;;;;5031881;28;20236;-63
2023/09/21 08:41:13;;;;;;;6.38;2.00;;;20.20;99.90;;;;;;5020516;28;20216;-64
2023/09/21 08:43:41;;;;;;;5.50;2.30;;;20.20;99.90;;;;;;5032131;28;20759;-64
2023/09/21 08:46:11;;;;;;;7.90;1.65;;;20.40;99.90;;;;;;5012913;28;20239;-64
2023/09/21 08:48:40;;;;;;;8.27;2.10;;;20.30;99.90;;;;;;5038113;28;20753;-64
2023/09/21 08:51:11;;;;;;;5.82;2.13;;;20.80;99.90;;;;;;4995346;28;20744;-64
2023/09/21 08:53:39;;;;;;;2.88;1.70;;;20.70;99.90;;;;;;5028080;28;20221;-64
2023/09/21 08:56:06;;;;;;;37.97;23.30;;;20.30;99.90;;;;;;5004665;28;20296;-63
2023/09/21 08:58:38;;;;;;;15.52;9.27;;;20.80;99.90;;;;;;5030479;28;20635;-64
2023/09/21 09:01:06;;;;;;;5.22;2.10;;;20.80;99.90;;;;;;5010545;28;20232;-64
2023/09/21 09:03:35;;;;;;;11.48;2.35;;;20.70;99.90;;;;;;5023734;28;20590;-63
2023/09/21 09:06:01;;;;;;;4.60;1.65;;;20.70;99.90;;;;;;5015304;28;20201;-64
2023/09/21 09:08:28;;;;;;;3.60;1.40;;;20.70;99.90;;;;;;5015688;28;21003;-64
2023/09/21 09:10:55;;;;;;;4.70;1.83;;;20.70;99.90;;;;;;5033892;28;20642;-64
2023/09/21 09:13:31;;;;;;;9.55;1.70;;;20.70;99.90;;;;;;5022205;28;20204;-64
2023/09/21 09:15:59;;;;;;;2.15;1.67;;;20.70;99.90;;;;;;5021396;28;20215;-64
2023/09/21 09:18:27;;;;;;;3.60;1.70;;;20.70;99.90;;;;;;5008009;28;20240;-64
2023/09/21 09:20:56;;;;;;;3.45;1.80;;;20.60;99.90;;;;;;5034652;28;20222;-64
2023/09/21 09:23:23;;;;;;;3.65;2.00;;;20.80;99.90;;;;;;5007214;28;20220;-64
2023/09/21 09:25:51;;;;;;;3.10;1.75;;;20.60;99.90;;;;;;5030175;28;20215;-64
2023/09/21 09:28:18;;;;;;;3.70;1.70;;;20.60;99.90;;;;;;5024256;28;20834;-64
2023/09/21 09:30:52;;;;;;;1.98;1.77;;;20.60;99.90;;;;;;5025035;28;20239;-64
2023/09/21 09:33:25;;;;;;;1.52;1.35;;;20.50;99.90;;;;;;5022968;28;20219;-64
2023/09/21 09:35:53;;;;;;;2.20;1.73;;;20.60;99.90;;;;;;5022459;28;20219;-64
2023/09/21 09:38:21;;;;;;;1.85;1.50;;;20.60;99.90;;;;;;5011667;28;20308;-64
2023/09/21 09:40:49;;;;;;;2.53;1.80;;;20.60;99.90;;;;;;5036048;28;20201;-64
2023/09/21 09:43:17;;;;;;;1.45;1.33;;;20.60;99.90;;;;;;5028681;28;20201;-64
2023/09/21 09:45:47;;;;;;;1.52;1.38;;;20.60;99.90;;;;;;5040714;28;20677;-64
2023/09/21 09:48:19;;;;;;;2.83;1.63;;;20.70;99.90;;;;;;5015224;28;20326;-64
2023/09/21 09:50:54;;;;;;;2.50;1.88;;;20.80;99.90;;;;;;5039158;28;20814;-64
2023/09/21 09:53:25;;;;;;;2.45;1.50;;;20.90;99.90;;;;;;5013345;28;20970;-64
2023/09/21 09:55:55;;;;;;;1.65;1.35;;;21.00;99.90;;;;;;5018661;28;20588;-64
2023/09/21 09:58:26;;;;;;;2.35;1.60;;;21.00;99.90;;;;;;5024106;28;20251;-64
2023/09/21 10:00:53;;;;;;;2.50;1.73;;;21.10;99.90;;;;;;5033360;28;20623;-64
2023/09/21 10:03:22;;;;;;;2.17;1.42;;;21.10;99.90;;;;;;5017627;28;20205;-64
2023/09/21 10:05:50;;;;;;;2.67;1.70;;;21.10;99.90;;;;;;5024285;28;20334;-63
2023/09/21 10:08:18;;;;;;;3.03;1.77;;;21.10;99.90;;;;;;5009160;28;20294;-64
2023/09/21 10:10:53;;;;;;;2.30;1.55;;;21.10;99.90;;;;;;5038439;28;20193;-64
2023/09/21 10:13:25;;;;;;;7.28;1.80;;;21.10;99.90;;;;;;5030399;28;20211;-63
2023/09/21 10:16:00;;;;;;;2.17;1.55;;;21.20;99.90;;;;;;5038127;28;20198;-63
2023/09/21 10:18:33;;;;;;;3.15;1.95;;;21.20;99.90;;;;;;5027552;28;20457;-63
2023/09/21 10:21:04;;;;;;;5.43;1.90;;;21.20;99.90;;;;;;5018529;28;20244;-63
2023/09/21 10:23:33;;;;;;;2.63;1.65;;;21.20;99.90;;;;;;5003876;28;20600;-63
2023/09/21 10:26:05;;;;;;;2.75;1.80;;;22.50;99.90;;;;;;5021878;28;20777;-64
2023/09/21 10:28:37;;;;;;;3.25;1.70;;;21.30;99.90;;;;;;5030324;28;20201;-64
2023/09/21 10:31:20;;;;;;;4.57;1.70;;;21.40;99.90;;;;;;5034916;28;20210;-64
2023/09/21 10:34:05;;;;;;;3.97;1.88;;;21.40;99.90;;;;;;5023148;28;20220;-64
2023/09/21 10:36:32;;;;;;;4.82;1.90;;;21.50;99.90;;;;;;5041566;28;20215;-64
2023/09/21 10:39:25;;;;;;;3.15;1.90;;;21.50;99.90;;;;;;5009707;28;20231;-64
2023/09/21 10:41:55;;;;;;;4.15;1.50;;;21.50;99.90;;;;;;5040792;28;20192;-64
2023/09/21 10:44:57;;;;;;;4.85;1.73;;;21.60;99.90;;;;;;5029217;28;21175;-64
2023/09/21 10:47:35;;;;;;;4.30;2.08;;;21.70;99.90;;;;;;5043317;28;20208;-64
2023/09/21 10:50:03;;;;;;;2.40;1.45;;;21.80;99.90;;;;;;5010491;28;20327;-64
2023/09/21 10:52:31;;;;;;;1.60;1.42;;;21.80;99.90;;;;;;5043114;28;20209;-64
2023/09/21 10:54:58;;;;;;;2.15;1.83;;;21.80;99.90;;;;;;5005437;28;20714;-64
2023/09/21 10:57:28;;;;;;;3.35;1.80;;;21.90;99.90;;;;;;5043211;28;20223;-64
2023/09/21 10:59:57;;;;;;;3.78;1.73;;;21.90;99.90;;;;;;5024853;28;20808;-64
2023/09/21 11:02:24;;;;;;;6.15;2.30;;;22.10;99.90;;;;;;5042663;28;20753;-64
2023/09/21 11:04:52;;;;;;;2.50;1.67;;;22.00;99.90;;;;;;5016753;28;20204;-64
2023/09/21 11:07:21;;;;;;;4.18;1.73;;;22.10;99.90;;;;;;5039825;28;20212;-64
2023/09/21 11:09:49;;;;;;;2.92;2.00;;;22.10;99.90;;;;;;5016648;28;20346;-64
2023/09/21 11:12:17;;;;;;;2.72;1.80;;;22.30;99.90;;;;;;5028829;28;20236;-64
2023/09/21 11:14:47;;;;;;;3.50;2.25;;;22.30;99.90;;;;;;5030527;28;20205;-64
2023/09/21 11:17:16;;;;;;;4.18;2.70;;;22.40;99.90;;;;;;5038162;28;20379;-64
2023/09/21 11:19:44;;;;;;;3.55;1.67;;;22.40;99.90;;;;;;5036837;28;20438;-64
2023/09/21 11:22:12;;;;;;;5.70;2.17;;;22.40;99.90;;;;;;5031579;28;20213;-64
2023/09/21 11:24:40;;;;;;;3.42;2.15;;;22.40;99.90;;;;;;5039267;28;20285;-64
2023/09/21 11:27:09;;;;;;;4.07;2.13;;;22.40;99.90;;;;;;5009475;28;20409;-64
2023/09/21 11:29:38;;;;;;;1.98;1.77;;;22.30;99.90;;;;;;5040763;28;20204;-64
2023/09/21 11:32:08;;;;;;;6.47;1.95;;;22.40;99.90;;;;;;5025031;28;20258;-64
2023/09/21 11:34:40;;;;;;;4.22;2.03;;;22.30;99.90;;;;;;5040718;28;20810;-64
2023/09/21 11:37:10;;;;;;;3.63;1.77;;;22.30;99.90;;;;;;5030517;28;20687;-64
2023/09/21 11:39:38;;;;;;;2.88;1.85;;;22.30;99.90;;;;;;5043533;28;20225;-64
2023/09/21 11:42:07;;;;;;;1.65;1.50;;;22.40;99.90;;;;;;5006555;28;20489;-64
2023/09/21 11:44:36;;;;;;;4.15;2.13;;;22.30;99.90;;;;;;5044913;28;20300;-64
2023/09/21 11:47:03;;;;;;;6.60;3.20;;;22.30;99.90;;;;;;5028822;28;20365;-64
2023/09/21 11:49:42;;;;;;;2.50;1.88;;;22.30;99.90;;;;;;5043884;28;20278;-64
2023/09/21 11:52:10;;;;;;;2.72;1.90;;;22.30;99.90;;;;;;5020709;28;20917;-64
2023/09/21 11:54:38;;;;;;;4.55;2.10;;;22.30;99.90;;;;;;5035624;28;20201;-64
2023/09/21 11:57:06;;;;;;;2.80;2.08;;;22.30;99.90;;;;;;4999049;28;20523;-64
2023/09/21 11:59:36;;;;;;;3.28;2.13;;;22.30;99.90;;;;;;5034227;28;20265;-64
2023/09/21 12:02:09;;;;;;;1.90;1.70;;;22.20;99.90;;;;;;5022317;28;20526;-64
2023/09/21 12:04:38;;;;;;;3.17;2.08;;;22.20;99.90;;;;;;5034844;28;20612;-64
2023/09/21 12:07:07;;;;;;;2.92;1.95;;;22.20;99.90;;;;;;4979988;28;20231;-64
2023/09/21 12:09:37;;;;;;;3.20;1.95;;;22.20;99.90;;;;;;5017846;28;21025;-64
2023/09/21 12:12:06;;;;;;;2.78;2.00;;;22.20;99.90;;;;;;4975422;28;20607;-64
2023/09/21 12:14:33;;;;;;;5.28;1.90;;;22.20;99.90;;;;;;5006551;28;20221;-65
2023/09/21 12:17:02;;;;;;;3.45;2.17;;;22.30;99.90;;;;;;5010352;28;20224;-65
2023/09/21 12:19:31;;;;;;;4.10;2.10;;;22.30;99.90;;;;;;5029343;28;20224;-64
2023/09/21 12:21:59;;;;;;;5.18;2.00;;;22.30;99.90;;;;;;5018901;28;20192;-64
2023/09/21 12:24:27;;;;;;;1.90;1.60;;;22.30;99.90;;;;;;5029640;28;20294;-64
2023/09/21 12:26:54;;;;;;;2.47;1.70;;;22.30;99.90;;;;;;4988185;28;20224;-64
2023/09/21 12:29:24;;;;;;;3.50;2.00;;;22.30;99.90;;;;;;5009686;28;20298;-64
2023/09/21 12:31:51;;;;;;;5.70;2.08;;;22.20;99.90;;;;;;5014829;28;20389;-64
2023/09/21 12:34:19;;;;;;;2.67;1.88;;;22.30;99.90;;;;;;5030617;28;20753;-65
2023/09/21 12:36:48;;;;;;;5.30;1.75;;;22.30;99.90;;;;;;5029586;28;20841;-64
2023/09/21 12:39:15;;;;;;;3.78;1.83;;;22.40;99.90;;;;;;4989937;28;20267;-64
2023/09/21 12:41:44;;;;;;;3.00;1.60;;;22.30;99.90;;;;;;4956846;28;20224;-64
2023/09/21 12:44:11;;;;;;;5.53;1.83;;;22.30;99.90;;;;;;5002245;28;20647;-64
2023/09/21 12:46:38;;;;;;;1.80;1.70;;;22.30;99.90;;;;;;4992722;28;20228;-64
2023/09/21 12:49:05;;;;;;;3.20;1.63;;;22.30;99.90;;;;;;5029573;28;20217;-63
2023/09/21 12:51:32;;;;;;;2.85;1.58;;;22.40;99.90;;;;;;5025667;28;20197;-65
2023/09/21 12:53:59;;;;;;;2.08;1.38;;;22.50;99.90;;;;;;5013593;28;20245;-64